Nearby METAR Reports

 

EGSS - Stansted Airport, United Kingdom
Distance from station: NW 15mi, 24km
Updated: 19/06/2018 06:50
Overcast
Overcast
 Wind from W
Wind: W 8 mph , 13 km/h
Temperature: 17°C
Dew Point: 14°C
Humidity: 83%
Barometer: 1022 hPa
Clouds: Overcast
Visibility: 6 miles , 10 km
Cloud details: Overcast 457 m
2018/06/19 05:50 EGSS 190550Z AUTO 27007KT 9999 OVC015 17/14 Q1022
EGMC - Southend-On-Sea, United Kingdom
Distance from station: SE 15mi, 25km
Updated: 19/06/2018 06:50
Mostly cloudy
Mostly cloudy
 Wind from W
Wind: W 7 mph , 11 km/h
Temperature: 18°C
Dew Point: 15°C
Humidity: 83%
Barometer: 1022 hPa
Clouds: Mostly cloudy
Visibility: 6 miles , 10 km
Cloud details: Few Clouds 488 m
Mostly cloudy 610 m
2018/06/19 05:50 EGMC 190550Z 28006KT 250V320 9999 FEW016 BKN020 18/15 Q1022
 
EGLC - London City Airp, United Kingdom
Distance from station: SW 24mi, 39km
Updated: 19/06/2018 06:50
Overcast
Overcast
 Wind from W
Wind: W 15 mph , 24 km/h
Temperature: 19°C
Dew Point: 14°C
Humidity: 73%
Barometer: 1022 hPa
Clouds: Overcast
Visibility: 6 miles , 10 km
Cloud details: Mostly cloudy 579 m
Overcast 792 m
2018/06/19 05:50 EGLC 190550Z AUTO 28013KT 250V310 9999 BKN019 OVC026 19/14 Q1022
EGUW - Wattisham Raf, United Kingdom
Distance from station: NE 34mi, 54km
Updated: 19/06/2018 06:50
Mostly cloudy
Mostly cloudy
 Wind from W
Wind: W 12 mph , 19 km/h
Temperature: 17°C
Dew Point: 14°C
Humidity: 83%
Barometer: 1021 hPa
Clouds: Mostly cloudy
Visibility: 6 miles , 10 km
Cloud details: Few Clouds 427 m
Mostly cloudy 671 m
2018/06/19 05:50 EGUW 190550Z 27010KT 9999 FEW014 BKN022 17/14 Q1021 WHT NOSIG
 
EGGW - Luton Airport, United Kingdom
Distance from station: WNW 37mi, 59km
Updated: 19/06/2018 06:50
Mostly cloudy
Mostly cloudy
 Wind from WSW
Wind: WSW 9 mph , 15 km/h
Temperature: 17°C
Dew Point: 14°C
Humidity: 83%
Barometer: 1022 hPa
Clouds: Mostly cloudy
Visibility: 6 miles , 10 km
Cloud details: Mostly cloudy 518 m
2018/06/19 05:50 EGGW 190550Z AUTO 24008KT 9999 BKN017 17/14 Q1022
EGWU - Northolt Raf, United Kingdom
Distance from station: WSW 40mi, 64km
Updated: 19/06/2018 06:50
Mostly cloudy
Mostly cloudy
 Wind from W
Wind: W 9 mph , 15 km/h
Temperature: 18°C
Dew Point: 13°C
Humidity: 73%
Barometer: 1022 hPa
Clouds: Mostly cloudy
Visibility: 6 miles , 10 km
Cloud details: Few Clouds 488 m
Mostly cloudy 732 m
2018/06/19 05:50 EGWU 190550Z 27008KT 9999 FEW016 BKN024 18/13 Q1022 BECMG SCT025